createdAt,value
2022-11-20T00:01:32.763Z,64.77
2022-11-20T00:04:03.122Z,72.10
2022-11-20T00:06:32.325Z,58.83
2022-11-20T00:09:04.118Z,55.70
2022-11-20T00:11:34.508Z,64.97
2022-11-20T00:14:06.535Z,62.30
2022-11-20T00:16:36.176Z,69.33
2022-11-20T00:19:06.901Z,78.97
2022-11-20T00:21:35.777Z,77.57
2022-11-20T00:24:07.171Z,73.67
2022-11-20T00:26:36.441Z,12.20
2022-11-20T00:29:05.913Z,79.50
2022-11-20T00:31:35.600Z,75.53
2022-11-20T00:34:04.811Z,78.60
2022-11-20T00:36:36.977Z,67.97
2022-11-20T00:39:08.604Z,75.90
2022-11-20T00:41:37.864Z,80.00
2022-11-20T00:44:07.880Z,63.87
2022-11-20T00:46:37.180Z,63.23
2022-11-20T00:49:06.500Z,77.27
2022-11-20T00:51:35.707Z,72.90
2022-11-20T00:54:04.953Z,65.37
2022-11-20T00:56:38.261Z,77.33
2022-11-20T00:59:07.508Z,72.97
2022-11-20T01:01:39.833Z,79.80
2022-11-20T01:04:09.110Z,72.67
2022-11-20T01:06:39.498Z,70.07
2022-11-20T01:09:11.043Z,81.63
2022-11-20T01:11:44.116Z,72.27
2022-11-20T01:14:15.993Z,68.63
2022-11-20T01:16:46.903Z,78.00
2022-11-20T01:19:18.567Z,58.90
2022-11-20T01:21:50.433Z,69.87
2022-11-20T01:24:22.295Z,62.03
2022-11-20T01:26:54.073Z,61.77
2022-11-20T01:29:26.275Z,66.83
2022-11-20T01:31:56.001Z,59.87
2022-11-20T01:34:26.400Z,61.30
2022-11-20T01:36:56.385Z,62.17
2022-11-20T01:39:27.089Z,64.43
2022-11-20T01:42:15.620Z,58.80
2022-11-20T01:44:53.780Z,59.07
2022-11-20T01:47:32.772Z,61.87
2022-11-20T01:50:07.815Z,62.00
2022-11-20T01:52:42.270Z,66.93
2022-11-20T01:55:14.447Z,69.60
2022-11-20T01:57:48.241Z,60.37
2022-11-20T02:00:19.634Z,57.10
2022-11-20T02:02:53.921Z,56.53
2022-11-20T02:05:29.807Z,63.50
2022-11-20T02:08:00.820Z,50.07
2022-11-20T02:10:30.982Z,46.67
2022-11-20T02:13:21.652Z,48.70
2022-11-20T02:15:51.289Z,44.10
2022-11-20T02:18:23.122Z,47.50
2022-11-20T02:20:56.517Z,56.07
2022-11-20T02:23:34.286Z,47.03
2022-11-20T02:26:08.640Z,52.43
2022-11-20T02:28:38.231Z,54.17
2022-11-20T02:31:07.516Z,44.77
2022-11-20T02:33:36.632Z,49.67
2022-11-20T02:36:06.103Z,54.50
2022-11-20T02:38:35.460Z,47.63
2022-11-20T02:41:06.006Z,53.60
2022-11-20T02:43:35.466Z,41.43
2022-11-20T02:46:04.461Z,58.50
2022-11-20T02:48:34.078Z,46.57
2022-11-20T02:51:03.565Z,53.10
2022-11-20T02:53:32.801Z,54.20
2022-11-20T02:56:02.087Z,56.40
2022-11-20T02:58:33.851Z,56.10
2022-11-20T03:01:03.131Z,55.67
2022-11-20T03:03:32.379Z,62.33
2022-11-20T03:06:02.345Z,47.70
2022-11-20T03:08:31.582Z,47.03
2022-11-20T03:11:05.963Z,46.17
2022-11-20T03:13:37.332Z,48.30
2022-11-20T03:16:11.638Z,57.60
2022-11-20T03:18:41.448Z,58.33
2022-11-20T03:21:11.300Z,63.50
2022-11-20T03:23:40.593Z,70.43
2022-11-20T03:26:14.322Z,57.77
2022-11-20T03:28:48.354Z,54.90
2022-11-20T03:31:19.542Z,65.63
2022-11-20T03:33:49.326Z,58.20
2022-11-20T03:36:20.045Z,59.97
2022-11-20T03:38:49.120Z,54.57
2022-11-20T03:41:21.638Z,56.13
2022-11-20T03:43:54.042Z,58.60
2022-11-20T03:46:23.479Z,56.80
2022-11-20T03:48:53.721Z,57.53
2022-11-20T03:51:24.793Z,55.67
2022-11-20T03:53:56.539Z,54.80
2022-11-20T03:56:27.522Z,47.57
2022-11-20T03:58:59.903Z,57.33
2022-11-20T04:01:30.539Z,65.50
2022-11-20T04:04:00.132Z,58.33
2022-11-20T04:06:31.275Z,54.43
2022-11-20T04:09:01.545Z,60.97
2022-11-20T04:11:34.858Z,52.93
2022-11-20T04:14:08.048Z,68.63
2022-11-20T04:16:38.838Z,49.20
2022-11-20T04:19:11.928Z,52.17
2022-11-20T04:21:40.964Z,66.97
2022-11-20T04:24:11.477Z,49.87
2022-11-20T04:26:43.591Z,57.87
2022-11-20T04:29:15.548Z,52.20
2022-11-20T04:31:44.703Z,43.47
2022-11-20T04:34:15.318Z,42.97
2022-11-20T04:36:44.471Z,40.87
2022-11-20T04:39:18.154Z,52.17
2022-11-20T04:41:47.556Z,56.37
2022-11-20T04:44:18.172Z,40.37
2022-11-20T04:46:47.578Z,45.63
2022-11-20T04:49:16.911Z,49.43
2022-11-20T04:51:46.215Z,47.63
2022-11-20T04:54:15.162Z,53.20
2022-11-20T04:56:44.889Z,56.83
2022-11-20T04:59:14.125Z,60.63
2022-11-20T05:01:45.259Z,55.17
2022-11-20T05:04:14.587Z,53.33
2022-11-20T05:06:43.469Z,52.80
2022-11-20T05:09:12.533Z,57.27
2022-11-20T05:11:42.125Z,52.67
2022-11-20T05:14:11.446Z,41.83
2022-11-20T05:16:40.786Z,51.20
2022-11-20T05:19:12.118Z,41.27
2022-11-20T05:21:41.575Z,53.57
2022-11-20T05:24:10.955Z,48.27
2022-11-20T05:26:40.464Z,56.87
2022-11-20T05:29:09.791Z,52.13
2022-11-20T05:31:39.171Z,47.63
2022-11-20T05:34:08.210Z,50.67
2022-11-20T05:36:39.080Z,49.97
2022-11-20T05:39:08.352Z,51.03
2022-11-20T05:41:37.536Z,48.53
2022-11-20T05:44:06.818Z,51.07
2022-11-20T05:46:35.925Z,56.10
2022-11-20T05:49:05.244Z,51.60
2022-11-20T05:51:34.182Z,53.63
2022-11-20T05:54:05.563Z,57.13
2022-11-20T05:56:34.901Z,56.40
2022-11-20T05:59:03.956Z,59.57
2022-11-20T06:01:33.498Z,66.83
2022-11-20T06:04:02.818Z,57.90
2022-11-20T06:06:32.176Z,58.13
2022-11-20T06:09:02.015Z,60.47
2022-11-20T06:11:32.895Z,61.63
2022-11-20T06:14:04.032Z,57.00
2022-11-20T06:16:33.271Z,57.13
2022-11-20T06:19:02.924Z,53.07
2022-11-20T06:21:33.470Z,46.53
2022-11-20T06:24:02.616Z,51.93
2022-11-20T06:26:33.791Z,62.10
2022-11-20T06:29:03.092Z,49.40
2022-11-20T06:31:34.293Z,47.63
2022-11-20T06:34:03.902Z,58.23
2022-11-20T06:36:33.209Z,46.50
2022-11-20T06:39:02.852Z,50.80
2022-11-20T06:41:33.589Z,45.93
2022-11-20T06:44:02.930Z,57.47
2022-11-20T06:46:33.329Z,50.17
2022-11-20T06:49:02.775Z,53.57
2022-11-20T06:51:32.062Z,57.40
2022-11-20T06:54:02.224Z,56.20
2022-11-20T06:56:33.451Z,50.13
2022-11-20T06:59:07.433Z,62.50
2022-11-20T07:01:36.990Z,63.03
2022-11-20T07:04:06.735Z,60.20
2022-11-20T07:06:36.061Z,61.00
2022-11-20T07:09:09.896Z,50.80
2022-11-20T07:11:43.404Z,62.27
2022-11-20T07:14:18.583Z,48.07
2022-11-20T07:16:48.281Z,54.50
2022-11-20T07:19:17.582Z,53.47
2022-11-20T07:21:46.790Z,51.50
2022-11-20T07:24:16.053Z,57.57
2022-11-20T07:26:50.814Z,45.40
2022-11-20T07:29:21.284Z,40.63
2022-11-20T07:31:50.966Z,45.77
2022-11-20T07:34:21.287Z,49.23
2022-11-20T07:36:50.525Z,59.93
2022-11-20T07:39:20.175Z,43.87
2022-11-20T07:41:50.742Z,49.77
2022-11-20T07:44:20.274Z,47.97
2022-11-20T07:46:49.050Z,43.93
2022-11-20T07:49:18.558Z,47.77
2022-11-20T07:51:51.607Z,50.47
2022-11-20T07:54:21.518Z,49.70
2022-11-20T07:56:52.585Z,58.40
2022-11-20T07:59:21.926Z,51.73
2022-11-20T08:01:51.069Z,69.47
2022-11-20T08:04:20.402Z,48.73
2022-11-20T08:06:48.950Z,48.07
2022-11-20T08:09:17.883Z,55.80
2022-11-20T08:12:04.217Z,67.67
2022-11-20T08:14:35.160Z,48.90
2022-11-20T08:17:04.255Z,54.67
2022-11-20T08:19:33.519Z,42.73
2022-11-20T08:22:03.314Z,54.07
2022-11-20T08:24:34.854Z,61.47
2022-11-20T08:27:03.837Z,61.30
2022-11-20T08:29:34.402Z,63.40
2022-11-20T08:32:03.150Z,51.67
2022-11-20T08:34:32.026Z,51.97
2022-11-20T08:37:01.263Z,49.90
2022-11-20T08:39:30.000Z,45.37
2022-11-20T08:41:59.213Z,48.63
2022-11-20T08:44:28.122Z,38.60
2022-11-20T08:46:59.266Z,38.87
2022-11-20T08:49:28.237Z,39.53
2022-11-20T08:51:56.864Z,36.17
2022-11-20T08:54:26.759Z,36.00
2022-11-20T08:56:55.432Z,33.50
2022-11-20T08:59:44.074Z,33.80
2022-11-20T09:02:14.832Z,41.67
2022-11-20T09:04:43.427Z,34.37
2022-11-20T09:07:14.037Z,33.30
2022-11-20T09:09:42.926Z,36.17
2022-11-20T09:12:13.751Z,37.70
2022-11-20T09:14:43.110Z,36.23
2022-11-20T09:17:16.759Z,37.40
2022-11-20T09:19:45.938Z,33.03
2022-11-20T09:22:15.188Z,32.83
2022-11-20T09:24:44.611Z,32.07
2022-11-20T09:27:13.524Z,33.73
2022-11-20T09:29:42.590Z,33.83
2022-11-20T09:32:11.867Z,32.57
2022-11-20T09:34:43.647Z,31.30
2022-11-20T09:37:12.906Z,31.23
2022-11-20T09:39:42.449Z,35.40
2022-11-20T09:42:30.677Z,30.93
2022-11-20T09:45:25.522Z,38.33
2022-11-20T09:48:31.914Z,32.70
2022-11-20T09:51:13.210Z,36.03
2022-11-20T09:53:54.532Z,27.90
2022-11-20T09:56:24.615Z,27.33
2022-11-20T09:58:55.850Z,29.83
2022-11-20T10:01:40.554Z,33.30
2022-11-20T10:04:18.481Z,34.03
2022-11-20T10:07:17.167Z,32.83
2022-11-20T10:09:52.438Z,37.43
2022-11-20T10:12:28.430Z,35.70
2022-11-20T10:15:15.921Z,34.43
2022-11-20T10:18:13.954Z,34.37
2022-11-20T10:20:51.570Z,38.33
2022-11-20T10:23:47.357Z,33.47
2022-11-20T10:26:25.001Z,38.43
2022-11-20T10:29:11.100Z,37.77
2022-11-20T10:31:43.109Z,34.63
2022-11-20T10:34:23.486Z,37.27
2022-11-20T10:36:59.021Z,32.73
2022-11-20T10:39:37.101Z,31.13
2022-11-20T10:42:13.801Z,28.00
2022-11-20T10:45:07.561Z,28.13
2022-11-20T10:47:38.824Z,32.63
2022-11-20T10:50:14.500Z,30.10
2022-11-20T10:52:59.223Z,33.63
2022-11-20T10:55:35.957Z,34.63
2022-11-20T10:58:14.041Z,34.60
2022-11-20T11:00:43.730Z,34.67
2022-11-20T11:03:26.570Z,33.33
2022-11-20T11:06:01.520Z,29.70
2022-11-20T11:08:36.342Z,30.37
2022-11-20T11:11:24.637Z,23.70
2022-11-20T11:13:53.842Z,25.33
2022-11-20T11:16:25.128Z,32.03
2022-11-20T11:19:05.796Z,30.10
2022-11-20T11:21:35.522Z,30.57
2022-11-20T11:24:34.822Z,32.30
2022-11-20T11:27:00.755Z,30.70
2022-11-20T11:29:30.856Z,28.43
2022-11-20T11:32:08.290Z,29.43
2022-11-20T11:34:38.112Z,25.77
2022-11-20T11:37:08.362Z,26.10
2022-11-20T11:39:38.531Z,25.17
2022-11-20T11:42:11.426Z,25.97
2022-11-20T11:45:03.589Z,26.07
2022-11-20T11:47:34.475Z,22.13
2022-11-20T11:50:06.015Z,22.83
2022-11-20T11:52:40.611Z,22.07
2022-11-20T11:55:18.310Z,22.17
2022-11-20T11:57:54.630Z,17.00
2022-11-20T12:00:25.183Z,21.43
2022-11-20T12:03:07.240Z,22.03
2022-11-20T12:05:44.287Z,23.43
2022-11-20T12:08:21.698Z,18.70
2022-11-20T12:10:58.571Z,22.43
2022-11-20T12:13:47.688Z,24.80
2022-11-20T12:16:20.710Z,19.77
2022-11-20T12:18:52.831Z,18.67
2022-11-20T12:21:32.035Z,19.07
2022-11-20T12:24:33.345Z,19.47
2022-11-20T12:27:20.415Z,22.00
2022-11-20T12:29:59.980Z,26.67
2022-11-20T12:33:02.127Z,20.73
2022-11-20T12:35:50.795Z,21.83
2022-11-20T12:38:58.077Z,21.67
2022-11-20T12:42:01.168Z,19.40
2022-11-20T12:45:05.290Z,24.50
2022-11-20T12:47:54.920Z,23.57
2022-11-20T12:50:53.180Z,23.50
2022-11-20T12:53:34.582Z,20.67
2022-11-20T12:56:14.467Z,27.83
2022-11-20T12:58:51.922Z,20.50
2022-11-20T13:01:43.881Z,25.17
2022-11-20T13:04:27.199Z,21.87
2022-11-20T13:06:58.981Z,20.90
2022-11-20T13:09:29.792Z,18.30
2022-11-20T13:12:06.788Z,22.77
2022-11-20T13:14:42.993Z,21.57
2022-11-20T13:17:25.490Z,18.73
2022-11-20T13:19:59.929Z,22.40
2022-11-20T13:22:32.744Z,22.10
2022-11-20T13:25:02.264Z,20.70
2022-11-20T13:27:32.375Z,22.07
2022-11-20T13:30:18.893Z,17.10
2022-11-20T13:32:56.389Z,19.17
2022-11-20T13:35:33.590Z,19.27
2022-11-20T13:38:08.779Z,24.00
2022-11-20T13:40:41.173Z,19.17
2022-11-20T13:43:26.302Z,19.10
2022-11-20T13:46:01.247Z,27.37
2022-11-20T13:48:34.893Z,33.23
2022-11-20T13:51:33.384Z,19.30
2022-11-20T13:54:38.763Z,26.33
2022-11-20T13:57:35.947Z,30.20
2022-11-20T14:00:14.448Z,27.80
2022-11-20T14:02:44.910Z,32.73
2022-11-20T14:05:23.101Z,31.87
2022-11-20T14:07:55.830Z,31.27
2022-11-20T14:10:31.767Z,33.83
2022-11-20T14:13:12.996Z,48.27
2022-11-20T14:15:45.183Z,35.00
2022-11-20T14:18:24.648Z,33.37
2022-11-20T14:20:54.353Z,33.07
2022-11-20T14:23:31.251Z,31.37
2022-11-20T14:26:00.730Z,43.57
2022-11-20T14:28:31.977Z,56.03
2022-11-20T14:31:01.018Z,55.83
2022-11-20T14:33:31.205Z,66.73
2022-11-20T14:36:01.875Z,62.67
2022-11-20T14:38:35.833Z,49.43
2022-11-20T14:41:22.393Z,40.87
2022-11-20T14:43:57.736Z,36.97
2022-11-20T14:46:28.054Z,29.10
2022-11-20T14:49:00.647Z,28.63
2022-11-20T14:51:34.913Z,29.50
2022-11-20T14:54:13.788Z,25.23
2022-11-20T14:56:43.119Z,28.00
2022-11-20T14:59:13.028Z,27.37
2022-11-20T15:01:42.639Z,27.47
2022-11-20T15:04:14.045Z,29.20
2022-11-20T15:06:55.479Z,30.10
2022-11-20T15:09:30.205Z,35.33
2022-11-20T15:12:02.813Z,36.90
2022-11-20T15:14:35.428Z,35.20
2022-11-20T15:17:05.237Z,33.43
2022-11-20T15:19:35.619Z,38.53
2022-11-20T15:22:04.973Z,46.13
2022-11-20T15:24:35.954Z,40.23
2022-11-20T15:27:05.575Z,51.37
2022-11-20T15:29:34.259Z,55.33
2022-11-20T15:32:07.986Z,55.20
2022-11-20T15:34:41.968Z,52.63
2022-11-20T15:37:11.365Z,54.83
2022-11-20T15:39:47.321Z,50.30
2022-11-20T15:42:17.549Z,58.13
2022-11-20T15:44:46.873Z,79.27
2022-11-20T15:47:31.871Z,57.90
2022-11-20T15:50:02.980Z,90.27
2022-11-20T15:52:42.243Z,69.43
2022-11-20T15:55:14.367Z,55.23
2022-11-20T15:57:43.684Z,58.13
2022-11-20T16:00:17.056Z,63.73
2022-11-20T16:02:48.637Z,69.37
2022-11-20T16:05:20.388Z,58.97
2022-11-20T16:07:52.230Z,69.87
2022-11-20T16:10:23.405Z,65.60
2022-11-20T16:13:10.137Z,77.47
2022-11-20T16:15:50.169Z,71.37
2022-11-20T16:18:23.286Z,64.33
2022-11-20T16:20:55.991Z,99.43
2022-11-20T16:23:27.570Z,82.77
2022-11-20T16:25:59.756Z,88.90
2022-11-20T16:28:29.335Z,82.23
2022-11-20T16:30:58.750Z,91.50
2022-11-20T16:33:29.220Z,100.30
2022-11-20T16:35:58.493Z,112.17
2022-11-20T16:38:27.795Z,103.47
2022-11-20T16:41:04.433Z,95.77
2022-11-20T16:43:36.180Z,114.33
2022-11-20T16:46:07.496Z,111.57
2022-11-20T16:48:37.688Z,123.83
2022-11-20T16:51:11.435Z,119.63
2022-11-20T16:53:42.196Z,116.60
2022-11-20T16:56:16.710Z,100.63
2022-11-20T16:58:46.663Z,91.73
2022-11-20T17:01:17.240Z,77.80
2022-11-20T17:03:48.334Z,95.90
2022-11-20T17:06:19.480Z,110.07
2022-11-20T17:08:49.465Z,102.60
2022-11-20T17:11:21.761Z,111.47
2022-11-20T17:13:51.896Z,108.40
2022-11-20T17:16:22.594Z,92.47
2022-11-20T17:18:52.260Z,92.97
2022-11-20T17:21:22.861Z,76.87
2022-11-20T17:23:51.892Z,83.30
2022-11-20T17:26:24.222Z,80.20
2022-11-20T17:28:57.012Z,75.73
2022-11-20T17:31:26.832Z,67.00
2022-11-20T17:33:56.673Z,67.77
2022-11-20T17:36:26.084Z,57.77
2022-11-20T17:38:55.126Z,52.77
2022-11-20T17:41:27.825Z,58.73
2022-11-20T17:43:58.159Z,46.30
2022-11-20T17:46:29.012Z,52.17
2022-11-20T17:48:58.790Z,49.67
2022-11-20T17:51:29.500Z,35.07
2022-11-20T17:54:01.227Z,41.87
2022-11-20T17:56:52.790Z,41.93
2022-11-20T17:59:23.984Z,42.63
2022-11-20T18:01:56.808Z,49.07
2022-11-20T18:04:29.031Z,49.60
2022-11-20T18:06:58.563Z,44.37
2022-11-20T18:09:27.984Z,52.47
2022-11-20T18:11:58.827Z,54.83
2022-11-20T18:14:29.835Z,49.60
2022-11-20T18:17:02.175Z,51.43
2022-11-20T18:19:33.151Z,52.03
2022-11-20T18:22:06.634Z,44.07
2022-11-20T18:24:37.134Z,44.80
2022-11-20T18:27:10.092Z,36.13
2022-11-20T18:29:40.373Z,32.57
2022-11-20T18:32:10.017Z,49.70
2022-11-20T18:34:39.985Z,63.63
2022-11-20T18:37:10.456Z,62.33
2022-11-20T18:39:40.025Z,83.63
2022-11-20T18:42:45.449Z,99.03
2022-11-20T18:45:15.665Z,61.40
2022-11-20T18:47:45.011Z,81.17
2022-11-20T18:50:14.782Z,66.27
2022-11-20T18:52:47.609Z,63.87
2022-11-20T18:55:17.595Z,78.93
2022-11-20T18:57:48.576Z,74.10
2022-11-20T19:00:18.432Z,75.60
2022-11-20T19:02:48.850Z,76.77
2022-11-20T19:05:18.192Z,72.70
2022-11-20T19:07:49.333Z,79.20
2022-11-20T19:10:20.998Z,75.00
2022-11-20T19:12:53.495Z,65.13
2022-11-20T19:15:23.509Z,69.73
2022-11-20T19:17:52.838Z,99.80
2022-11-20T19:20:22.043Z,93.47
2022-11-20T19:22:54.995Z,97.63
2022-11-20T19:25:25.182Z,88.23
2022-11-20T19:27:56.344Z,122.57
2022-11-20T19:30:25.940Z,122.80
2022-11-20T19:32:58.563Z,98.63
2022-11-20T19:35:27.996Z,98.20
2022-11-20T19:38:00.209Z,89.77
2022-11-20T19:40:33.562Z,105.00
2022-11-20T19:43:05.637Z,93.03
2022-11-20T19:45:35.865Z,87.33
2022-11-20T19:48:07.991Z,70.33
2022-11-20T19:50:37.986Z,98.70
2022-11-20T19:53:07.628Z,89.00
2022-11-20T19:55:36.958Z,78.00
2022-11-20T19:58:08.169Z,83.97
2022-11-20T20:00:37.668Z,98.77
2022-11-20T20:03:06.882Z,99.13
2022-11-20T20:05:36.490Z,86.03
2022-11-20T20:08:06.400Z,87.37
2022-11-20T20:10:35.790Z,90.97
2022-11-20T20:13:05.293Z,100.40
2022-11-20T20:15:36.061Z,90.20
2022-11-20T20:18:05.432Z,97.93
2022-11-20T20:20:34.839Z,89.10
2022-11-20T20:23:07.671Z,94.30
2022-11-20T20:25:39.266Z,86.97
2022-11-20T20:28:09.679Z,133.47
2022-11-20T20:30:40.622Z,124.63
2022-11-20T20:33:10.279Z,101.80
2022-11-20T20:35:43.423Z,97.30
2022-11-20T20:38:12.860Z,104.50
2022-11-20T20:40:47.518Z,93.87
2022-11-20T20:43:17.332Z,97.47
2022-11-20T20:45:50.294Z,89.87
2022-11-20T20:48:24.229Z,94.00
2022-11-20T20:50:57.270Z,104.63
2022-11-20T20:53:28.170Z,120.43
2022-11-20T20:55:58.257Z,115.50
2022-11-20T20:58:28.122Z,112.73
2022-11-20T21:01:04.257Z,93.30
2022-11-20T21:03:49.523Z,99.47
2022-11-20T21:06:22.759Z,104.10
2022-11-20T21:08:52.583Z,98.73
2022-11-20T21:11:22.552Z,94.60
2022-11-20T21:13:52.166Z,111.73
2022-11-20T21:16:25.330Z,93.03
2022-11-20T21:18:54.865Z,102.87
2022-11-20T21:21:41.061Z,99.90
2022-11-20T21:24:10.616Z,93.27
2022-11-20T21:26:40.195Z,100.70
2022-11-20T21:29:11.343Z,96.47
2022-11-20T21:31:44.057Z,105.20
2022-11-20T21:34:14.185Z,103.77
2022-11-20T21:36:43.635Z,97.00
2022-11-20T21:39:13.751Z,107.87
2022-11-20T21:41:44.047Z,134.47
2022-11-20T21:44:30.507Z,136.27
2022-11-20T21:47:02.224Z,123.43
2022-11-20T21:49:31.772Z,118.20
2022-11-20T21:52:04.441Z,147.77
2022-11-20T21:54:36.320Z,124.47
2022-11-20T21:57:07.828Z,115.17
2022-11-20T21:59:37.915Z,99.70
2022-11-20T22:02:09.711Z,110.80
2022-11-20T22:04:39.205Z,110.27
2022-11-20T22:07:08.357Z,106.63
2022-11-20T22:09:37.202Z,109.77
2022-11-20T22:12:07.331Z,104.73
2022-11-20T22:14:35.393Z,106.27
2022-11-20T22:17:06.648Z,104.43
2022-11-20T22:19:37.290Z,110.23
2022-11-20T22:22:06.337Z,104.87
2022-11-20T22:24:35.544Z,102.63
2022-11-20T22:27:07.263Z,98.47
2022-11-20T22:29:36.596Z,99.63
2022-11-20T22:32:06.600Z,100.57
2022-11-20T22:34:37.455Z,96.53
2022-11-20T22:37:06.755Z,94.63
2022-11-20T22:39:36.029Z,90.33
2022-11-20T22:42:05.067Z,91.57
2022-11-20T22:44:34.527Z,91.20
2022-11-20T22:47:08.690Z,99.00
2022-11-20T22:49:42.275Z,95.10
2022-11-20T22:52:11.255Z,90.73
2022-11-20T22:54:39.851Z,106.43
2022-11-20T22:57:09.515Z,96.27
2022-11-20T22:59:40.731Z,86.63
2022-11-20T23:02:12.772Z,81.70
2022-11-20T23:04:42.956Z,83.30
2022-11-20T23:07:13.783Z,80.17
2022-11-20T23:09:42.879Z,94.77
2022-11-20T23:12:12.377Z,83.80
2022-11-20T23:14:41.306Z,85.47
2022-11-20T23:17:11.373Z,91.37
2022-11-20T23:19:40.693Z,84.90
2022-11-20T23:22:11.147Z,83.53
2022-11-20T23:24:40.697Z,78.80
2022-11-20T23:27:09.724Z,74.37
2022-11-20T23:29:38.730Z,82.57
2022-11-20T23:32:08.138Z,94.73
2022-11-20T23:34:37.432Z,87.57
2022-11-20T23:37:06.637Z,84.20
2022-11-20T23:39:37.287Z,81.23
2022-11-20T23:42:06.380Z,82.30
2022-11-20T23:44:35.267Z,82.23
2022-11-20T23:47:04.399Z,86.90
2022-11-20T23:49:34.145Z,98.83
2022-11-20T23:52:03.864Z,85.90
2022-11-20T23:54:35.402Z,81.63
2022-11-20T23:57:05.986Z,72.37
2022-11-20T23:59:34.945Z,66.40
